sensor_id;sensor_type;location;lat;lon;timestamp;pressure;altitude;pressure_sealevel;temperature;humidity
59971;BME280;45825;45.434;9.116;2023-11-21T00:01:21;99743.94;;;11.02;100.00
59971;BME280;45825;45.434;9.116;2023-11-21T00:03:47;99741.69;;;10.96;100.00
59971;BME280;45825;45.434;9.116;2023-11-21T00:06:12;99742.88;;;11.04;100.00
59971;BME280;45825;45.434;9.116;2023-11-21T00:08:38;99739.19;;;11.07;100.00
59971;BME280;45825;45.434;9.116;2023-11-21T00:11:03;99735.72;;;11.07;100.00
59971;BME280;45825;45.434;9.116;2023-11-21T00:13:31;99734.13;;;11.04;100.00
59971;BME280;45825;45.434;9.116;2023-11-21T00:15:56;99731.72;;;11.14;100.00
59971;BME280;45825;45.434;9.116;2023-11-21T00:18:22;99729.81;;;11.03;100.00
59971;BME280;45825;45.434;9.116;2023-11-21T00:20:47;99727.53;;;11.11;100.00
59971;BME280;45825;45.434;9.116;2023-11-21T00:23:12;99732.81;;;11.11;100.00
59971;BME280;45825;45.434;9.116;2023-11-21T00:25:38;99726.69;;;11.11;100.00
59971;BME280;45825;45.434;9.116;2023-11-21T00:28:03;99725.44;;;11.16;100.00
59971;BME280;45825;45.434;9.116;2023-11-21T00:30:28;99720.25;;;11.02;100.00
59971;BME280;45825;45.434;9.116;2023-11-21T00:32:54;99723.19;;;10.97;100.00
59971;BME280;45825;45.434;9.116;2023-11-21T00:35:20;99715.72;;;11.04;100.00
59971;BME280;45825;45.434;9.116;2023-11-21T00:37:45;99714.97;;;11.02;100.00
59971;BME280;45825;45.434;9.116;2023-11-21T00:40:11;99716.31;;;10.95;100.00
59971;BME280;45825;45.434;9.116;2023-11-21T00:42:36;99719.16;;;11.04;100.00
59971;BME280;45825;45.434;9.116;2023-11-21T00:45:03;99718.25;;;11.06;100.00
59971;BME280;45825;45.434;9.116;2023-11-21T00:47:29;99727.53;;;11.11;100.00
59971;BME280;45825;45.434;9.116;2023-11-21T00:49:54;99718.78;;;11.11;100.00
59971;BME280;45825;45.434;9.116;2023-11-21T00:52:19;99718.78;;;11.11;100.00
59971;BME280;45825;45.434;9.116;2023-11-21T00:54:45;99719.94;;;11.20;100.00
59971;BME280;45825;45.434;9.116;2023-11-21T00:57:10;99718.25;;;11.18;100.00
59971;BME280;45825;45.434;9.116;2023-11-21T00:59:37;99709.72;;;11.02;100.00
59971;BME280;45825;45.434;9.116;2023-11-21T01:02:02;99712.72;;;10.96;100.00
59971;BME280;45825;45.434;9.116;2023-11-21T01:04:30;99712.09;;;10.92;100.00
59971;BME280;45825;45.434;9.116;2023-11-21T01:06:56;99705.00;;;10.80;100.00
59971;BME280;45825;45.434;9.116;2023-11-21T01:09:22;99714.16;;;11.14;100.00
59971;BME280;45825;45.434;9.116;2023-11-21T01:11:47;99713.28;;;11.01;100.00
59971;BME280;45825;45.434;9.116;2023-11-21T01:14:13;99716.69;;;10.88;100.00
59971;BME280;45825;45.434;9.116;2023-11-21T01:16:38;99707.03;;;10.89;100.00
59971;BME280;45825;45.434;9.116;2023-11-21T01:19:04;99705.09;;;11.18;100.00
59971;BME280;45825;45.434;9.116;2023-11-21T01:21:29;99695.81;;;11.13;100.00
59971;BME280;45825;45.434;9.116;2023-11-21T01:23:55;99693.78;;;11.03;100.00
59971;BME280;45825;45.434;9.116;2023-11-21T01:26:21;99708.34;;;11.09;100.00
59971;BME280;45825;45.434;9.116;2023-11-21T01:28:46;99700.69;;;11.19;100.00
59971;BME280;45825;45.434;9.116;2023-11-21T01:31:14;99704.28;;;11.18;100.00
59971;BME280;45825;45.434;9.116;2023-11-21T01:33:39;99696.25;;;11.20;100.00
59971;BME280;45825;45.434;9.116;2023-11-21T01:36:05;99687.56;;;11.04;100.00
59971;BME280;45825;45.434;9.116;2023-11-21T01:38:30;99689.38;;;11.04;100.00
59971;BME280;45825;45.434;9.116;2023-11-21T01:40:57;99683.38;;;11.02;100.00
59971;BME280;45825;45.434;9.116;2023-11-21T01:43:22;99687.16;;;10.98;100.00
59971;BME280;45825;45.434;9.116;2023-11-21T01:45:47;99682.31;;;10.92;100.00
59971;BME280;45825;45.434;9.116;2023-11-21T01:48:13;99675.25;;;10.92;100.00
59971;BME280;45825;45.434;9.116;2023-11-21T01:50:39;99671.78;;;10.92;100.00
59971;BME280;45825;45.434;9.116;2023-11-21T01:53:05;99678.31;;;10.99;100.00
59971;BME280;45825;45.434;9.116;2023-11-21T01:55:31;99676.91;;;10.93;100.00
59971;BME280;45825;45.434;9.116;2023-11-21T01:57:59;99681.75;;;10.86;100.00
59971;BME280;45825;45.434;9.116;2023-11-21T02:00:25;99673.47;;;10.93;100.00
59971;BME280;45825;45.434;9.116;2023-11-21T02:02:53;99673.22;;;10.83;100.00
59971;BME280;45825;45.434;9.116;2023-11-21T02:05:19;99673.13;;;10.84;100.00
59971;BME280;45825;45.434;9.116;2023-11-21T02:07:45;99668.28;;;10.91;100.00
59971;BME280;45825;45.434;9.116;2023-11-21T02:10:13;99663.75;;;10.93;100.00
59971;BME280;45825;45.434;9.116;2023-11-21T02:12:43;99655.56;;;10.98;100.00
59971;BME280;45825;45.434;9.116;2023-11-21T02:15:13;99655.06;;;11.18;100.00
59971;BME280;45825;45.434;9.116;2023-11-21T02:17:45;99650.00;;;11.02;100.00
59971;BME280;45825;45.434;9.116;2023-11-21T02:20:12;99647.66;;;10.98;100.00
59971;BME280;45825;45.434;9.116;2023-11-21T02:22:41;99652.09;;;10.97;100.00
59971;BME280;45825;45.434;9.116;2023-11-21T02:25:07;99650.59;;;10.93;100.00
59971;BME280;45825;45.434;9.116;2023-11-21T02:27:33;99651.53;;;10.92;100.00
59971;BME280;45825;45.434;9.116;2023-11-21T02:29:58;99646.28;;;10.92;100.00
59971;BME280;45825;45.434;9.116;2023-11-21T02:32:25;99651.25;;;10.84;100.00
59971;BME280;45825;45.434;9.116;2023-11-21T02:34:51;99651.66;;;10.90;100.00
59971;BME280;45825;45.434;9.116;2023-11-21T02:37:16;99647.97;;;10.93;100.00
59971;BME280;45825;45.434;9.116;2023-11-21T02:39:42;99648.19;;;10.90;100.00
59971;BME280;45825;45.434;9.116;2023-11-21T02:42:07;99639.56;;;10.88;100.00
59971;BME280;45825;45.434;9.116;2023-11-21T02:44:33;99637.00;;;10.86;100.00
59971;BME280;45825;45.434;9.116;2023-11-21T02:46:58;99636.91;;;10.88;100.00
59971;BME280;45825;45.434;9.116;2023-11-21T02:49:23;99636.72;;;11.04;100.00
59971;BME280;45825;45.434;9.116;2023-11-21T02:51:49;99638.63;;;11.02;100.00
59971;BME280;45825;45.434;9.116;2023-11-21T02:54:14;99638.72;;;11.00;100.00
59971;BME280;45825;45.434;9.116;2023-11-21T02:56:40;99639.16;;;11.07;100.00
59971;BME280;45825;45.434;9.116;2023-11-21T02:59:05;99636.94;;;11.01;100.00
59971;BME280;45825;45.434;9.116;2023-11-21T03:01:30;99635.03;;;11.16;100.00
59971;BME280;45825;45.434;9.116;2023-11-21T03:03:56;99643.38;;;11.10;100.00
59971;BME280;45825;45.434;9.116;2023-11-21T03:06:22;99642.63;;;11.21;100.00
59971;BME280;45825;45.434;9.116;2023-11-21T03:08:47;99637.78;;;11.14;100.00
59971;BME280;45825;45.434;9.116;2023-11-21T03:11:13;99640.44;;;11.14;100.00
59971;BME280;45825;45.434;9.116;2023-11-21T03:13:40;99643.16;;;11.13;100.00
59971;BME280;45825;45.434;9.116;2023-11-21T03:16:10;99638.00;;;11.11;100.00
59971;BME280;45825;45.434;9.116;2023-11-21T03:18:36;99640.53;;;11.13;100.00
59971;BME280;45825;45.434;9.116;2023-11-21T03:21:02;99636.63;;;11.06;100.00
59971;BME280;45825;45.434;9.116;2023-11-21T03:23:28;99636.00;;;11.02;100.00
59971;BME280;45825;45.434;9.116;2023-11-21T03:25:53;99632.94;;;10.95;100.00
59971;BME280;45825;45.434;9.116;2023-11-21T03:28:18;99637.25;;;10.96;100.00
59971;BME280;45825;45.434;9.116;2023-11-21T03:30:44;99633.38;;;11.02;100.00
59971;BME280;45825;45.434;9.116;2023-11-21T03:33:09;99629.25;;;11.11;100.00
59971;BME280;45825;45.434;9.116;2023-11-21T03:35:34;99630.22;;;11.10;100.00
59971;BME280;45825;45.434;9.116;2023-11-21T03:38:00;99625.34;;;11.03;100.00
59971;BME280;45825;45.434;9.116;2023-11-21T03:40:25;99636.00;;;11.02;100.00
59971;BME280;45825;45.434;9.116;2023-11-21T03:42:50;99633.84;;;10.94;100.00
59971;BME280;45825;45.434;9.116;2023-11-21T03:45:16;99633.38;;;11.02;100.00
59971;BME280;45825;45.434;9.116;2023-11-21T03:47:42;99632.16;;;10.93;100.00
59971;BME280;45825;45.434;9.116;2023-11-21T03:50:07;99631.56;;;10.89;100.00
59971;BME280;45825;45.434;9.116;2023-11-21T03:52:34;99640.28;;;10.90;100.00
59971;BME280;45825;45.434;9.116;2023-11-21T03:55:00;99637.88;;;11.00;100.00
59971;BME280;45825;45.434;9.116;2023-11-21T03:57:26;99635.44;;;10.97;100.00
59971;BME280;45825;45.434;9.116;2023-11-21T03:59:53;99636.59;;;10.93;100.00
59971;BME280;45825;45.434;9.116;2023-11-21T04:02:19;99636.81;;;10.89;100.00
59971;BME280;45825;45.434;9.116;2023-11-21T04:04:44;99631.88;;;10.85;100.00
59971;BME280;45825;45.434;9.116;2023-11-21T04:07:09;99636.47;;;10.81;100.00
59971;BME280;45825;45.434;9.116;2023-11-21T04:09:35;99624.59;;;10.88;100.00
59971;BME280;45825;45.434;9.116;2023-11-21T04:12:01;99635.44;;;10.84;100.00
59971;BME280;45825;45.434;9.116;2023-11-21T04:14:27;99639.75;;;10.85;100.00
59971;BME280;45825;45.434;9.116;2023-11-21T04:16:52;99632.91;;;10.82;100.00
59971;BME280;45825;45.434;9.116;2023-11-21T04:19:18;99625.84;;;10.83;100.00
59971;BME280;45825;45.434;9.116;2023-11-21T04:21:44;99632.25;;;10.79;100.00
59971;BME280;45825;45.434;9.116;2023-11-21T04:24:09;99627.84;;;10.79;100.00
59971;BME280;45825;45.434;9.116;2023-11-21T04:26:35;99623.50;;;10.78;100.00
59971;BME280;45825;45.434;9.116;2023-11-21T04:29:01;99615.13;;;10.86;100.00
59971;BME280;45825;45.434;9.116;2023-11-21T04:31:26;99618.72;;;10.85;100.00
59971;BME280;45825;45.434;9.116;2023-11-21T04:33:51;99619.53;;;10.85;100.00
59971;BME280;45825;45.434;9.116;2023-11-21T04:36:18;99617.75;;;10.86;100.00
59971;BME280;45825;45.434;9.116;2023-11-21T04:38:45;99621.63;;;10.80;100.00
59971;BME280;45825;45.434;9.116;2023-11-21T04:41:10;99628.91;;;10.76;100.00
59971;BME280;45825;45.434;9.116;2023-11-21T04:43:37;99620.25;;;10.74;100.00
59971;BME280;45825;45.434;9.116;2023-11-21T04:46:02;99622.13;;;10.72;100.00
59971;BME280;45825;45.434;9.116;2023-11-21T04:48:27;99622.25;;;10.71;100.00
59971;BME280;45825;45.434;9.116;2023-11-21T04:50:52;99634.47;;;10.72;100.00
59971;BME280;45825;45.434;9.116;2023-11-21T04:53:18;99632.88;;;10.69;100.00
59971;BME280;45825;45.434;9.116;2023-11-21T04:55:43;99633.16;;;10.65;100.00
59971;BME280;45825;45.434;9.116;2023-11-21T04:58:09;99637.41;;;10.67;100.00
59971;BME280;45825;45.434;9.116;2023-11-21T05:00:34;99636.53;;;10.67;100.00
59971;BME280;45825;45.434;9.116;2023-11-21T05:03:02;99638.25;;;10.68;100.00
59971;BME280;45825;45.434;9.116;2023-11-21T05:05:27;99635.41;;;10.71;100.00
59971;BME280;45825;45.434;9.116;2023-11-21T05:07:52;99638.03;;;10.71;100.00
59971;BME280;45825;45.434;9.116;2023-11-21T05:10:19;99634.56;;;10.70;100.00
59971;BME280;45825;45.434;9.116;2023-11-21T05:12:44;99636.22;;;10.71;100.00
59971;BME280;45825;45.434;9.116;2023-11-21T05:15:14;99629.94;;;10.74;100.00
59971;BME280;45825;45.434;9.116;2023-11-21T05:17:40;99628.16;;;10.74;100.00
59971;BME280;45825;45.434;9.116;2023-11-21T05:20:10;99635.28;;;10.72;100.00
59971;BME280;45825;45.434;9.116;2023-11-21T05:22:37;99635.41;;;10.71;100.00
59971;BME280;45825;45.434;9.116;2023-11-21T05:25:03;99629.84;;;10.75;100.00
59971;BME280;45825;45.434;9.116;2023-11-21T05:27:29;99621.31;;;10.72;100.00
59971;BME280;45825;45.434;9.116;2023-11-21T05:29:56;99627.59;;;10.69;100.00
59971;BME280;45825;45.434;9.116;2023-11-21T05:32:21;99627.91;;;10.65;100.00
59971;BME280;45825;45.434;9.116;2023-11-21T05:34:48;99628.03;;;10.63;100.00
59971;BME280;45825;45.434;9.116;2023-11-21T05:37:13;99633.06;;;10.66;100.00
59971;BME280;45825;45.434;9.116;2023-11-21T05:39:38;99634.47;;;10.72;100.00
59971;BME280;45825;45.434;9.116;2023-11-21T05:42:03;99630.97;;;10.71;100.00
59971;BME280;45825;45.434;9.116;2023-11-21T05:44:29;99641.19;;;10.76;100.00
59971;BME280;45825;45.434;9.116;2023-11-21T05:46:55;99641.75;;;10.81;100.00
59971;BME280;45825;45.434;9.116;2023-11-21T05:49:20;99642.47;;;10.83;100.00
59971;BME280;45825;45.434;9.116;2023-11-21T05:51:48;99634.03;;;10.78;100.00
59971;BME280;45825;45.434;9.116;2023-11-21T05:54:13;99638.13;;;10.69;100.00
59971;BME280;45825;45.434;9.116;2023-11-21T05:56:39;99637.16;;;10.57;100.00
59971;BME280;45825;45.434;9.116;2023-11-21T05:59:04;99639.44;;;10.49;100.00
59971;BME280;45825;45.434;9.116;2023-11-21T06:01:29;99642.47;;;10.43;100.00
59971;BME280;45825;45.434;9.116;2023-11-21T06:03:55;99642.47;;;10.43;100.00
59971;BME280;45825;45.434;9.116;2023-11-21T06:06:21;99651.22;;;10.43;100.00
59971;BME280;45825;45.434;9.116;2023-11-21T06:08:48;99649.41;;;10.44;100.00
59971;BME280;45825;45.434;9.116;2023-11-21T06:11:14;99651.00;;;10.46;100.00
59971;BME280;45825;45.434;9.116;2023-11-21T06:13:39;99648.38;;;10.46;100.00
59971;BME280;45825;45.434;9.116;2023-11-21T06:16:05;99636.25;;;10.44;100.00
59971;BME280;45825;45.434;9.116;2023-11-21T06:18:30;99634.28;;;10.47;100.00
59971;BME280;45825;45.434;9.116;2023-11-21T06:20:55;99630.31;;;10.55;100.00
59971;BME280;45825;45.434;9.116;2023-11-21T06:23:21;99630.84;;;10.60;100.00
59971;BME280;45825;45.434;9.116;2023-11-21T06:25:46;99625.28;;;10.65;100.00
59971;BME280;45825;45.434;9.116;2023-11-21T06:28:12;99624.03;;;10.70;100.00
59971;BME280;45825;45.434;9.116;2023-11-21T06:30:37;99621.38;;;10.70;100.00
59971;BME280;45825;45.434;9.116;2023-11-21T06:33:03;99630.78;;;10.74;100.00
59971;BME280;45825;45.434;9.116;2023-11-21T06:35:28;99635.09;;;10.75;100.00
59971;BME280;45825;45.434;9.116;2023-11-21T06:37:55;99633.22;;;10.78;100.00
59971;BME280;45825;45.434;9.116;2023-11-21T06:40:20;99626.13;;;10.78;100.00
59971;BME280;45825;45.434;9.116;2023-11-21T06:42:46;99627.72;;;10.81;100.00
59971;BME280;45825;45.434;9.116;2023-11-21T06:45:12;99626.78;;;10.82;100.00
59971;BME280;45825;45.434;9.116;2023-11-21T06:47:38;99631.22;;;10.81;100.00
59971;BME280;45825;45.434;9.116;2023-11-21T06:50:03;99624.91;;;10.84;100.00
59971;BME280;45825;45.434;9.116;2023-11-21T06:52:30;99623.03;;;10.86;100.00
59971;BME280;45825;45.434;9.116;2023-11-21T06:54:57;99616.25;;;10.82;100.00
59971;BME280;45825;45.434;9.116;2023-11-21T06:57:25;99617.63;;;10.87;100.00
59971;BME280;45825;45.434;9.116;2023-11-21T06:59:50;99614.81;;;10.90;100.00
59971;BME280;45825;45.434;9.116;2023-11-21T07:02:16;99618.91;;;10.95;100.00
59971;BME280;45825;45.434;9.116;2023-11-21T07:04:44;99619.97;;;10.92;100.00
59971;BME280;45825;45.434;9.116;2023-11-21T07:07:10;99619.31;;;10.88;100.00
59971;BME280;45825;45.434;9.116;2023-11-21T07:09:35;99618.81;;;10.83;100.00
59971;BME280;45825;45.434;9.116;2023-11-21T07:12:01;99625.22;;;10.79;100.00
59971;BME280;45825;45.434;9.116;2023-11-21T07:14:28;99622.13;;;10.59;100.00
59971;BME280;45825;45.434;9.116;2023-11-21T07:16:54;99628.31;;;10.58;100.00
59971;BME280;45825;45.434;9.116;2023-11-21T07:19:19;99625.88;;;10.55;100.00
59971;BME280;45825;45.434;9.116;2023-11-21T07:21:45;99626.63;;;10.57;100.00
59971;BME280;45825;45.434;9.116;2023-11-21T07:24:11;99623.06;;;10.58;100.00
59971;BME280;45825;45.434;9.116;2023-11-21T07:26:36;99608.97;;;10.59;100.00
59971;BME280;45825;45.434;9.116;2023-11-21T07:29:02;99611.38;;;10.62;100.00
59971;BME280;45825;45.434;9.116;2023-11-21T07:31:29;99617.06;;;10.69;100.00
59971;BME280;45825;45.434;9.116;2023-11-21T07:33:54;99627.94;;;10.78;100.00
59971;BME280;45825;45.434;9.116;2023-11-21T07:36:22;99628.03;;;10.76;100.00
59971;BME280;45825;45.434;9.116;2023-11-21T07:38:48;99620.78;;;10.80;100.00
59971;BME280;45825;45.434;9.116;2023-11-21T07:41:14;99632.81;;;10.84;100.00
59971;BME280;45825;45.434;9.116;2023-11-21T07:43:43;99632.91;;;10.82;100.00
59971;BME280;45825;45.434;9.116;2023-11-21T07:46:08;99635.28;;;10.72;100.00
59971;BME280;45825;45.434;9.116;2023-11-21T07:48:34;99642.75;;;10.66;100.00
59971;BME280;45825;45.434;9.116;2023-11-21T07:51:01;99642.88;;;10.64;100.00
59971;BME280;45825;45.434;9.116;2023-11-21T07:53:28;99639.38;;;10.64;100.00
59971;BME280;45825;45.434;9.116;2023-11-21T07:55:58;99635.91;;;10.63;100.00
59971;BME280;45825;45.434;9.116;2023-11-21T07:58:23;99641.34;;;10.60;100.00
59971;BME280;45825;45.434;9.116;2023-11-21T08:00:49;99636.66;;;10.65;100.00
59971;BME280;45825;45.434;9.116;2023-11-21T08:03:15;99640.66;;;10.71;100.00
59971;BME280;45825;45.434;9.116;2023-11-21T08:05:41;99636.06;;;10.74;100.00
59971;BME280;45825;45.434;9.116;2023-11-21T08:08:07;99640.81;;;10.82;100.00
59971;BME280;45825;45.434;9.116;2023-11-21T08:10:32;99637.56;;;10.92;100.00
59971;BME280;45825;45.434;9.116;2023-11-21T08:12:58;99641.44;;;10.99;100.00
59971;BME280;45825;45.434;9.116;2023-11-21T08:15:23;99631.88;;;10.98;100.00
59971;BME280;45825;45.434;9.116;2023-11-21T08:17:49;99622.84;;;11.02;100.00
59971;BME280;45825;45.434;9.116;2023-11-21T08:20:14;99615.34;;;11.09;100.00
59971;BME280;45825;45.434;9.116;2023-11-21T08:22:44;99618.50;;;11.14;100.00
59971;BME280;45825;45.434;9.116;2023-11-21T08:25:09;99615.88;;;11.14;100.00
59971;BME280;45825;45.434;9.116;2023-11-21T08:27:35;99615.25;;;11.23;100.00
59971;BME280;45825;45.434;9.116;2023-11-21T08:30:02;99606.50;;;11.36;100.00
59971;BME280;45825;45.434;9.116;2023-11-21T08:32:28;99607.78;;;11.43;100.00
59971;BME280;45825;45.434;9.116;2023-11-21T08:34:55;99608.81;;;11.53;100.00
59971;BME280;45825;45.434;9.116;2023-11-21T08:37:20;99606.72;;;11.45;100.00
59971;BME280;45825;45.434;9.116;2023-11-21T08:39:47;99603.53;;;11.40;100.00
59971;BME280;45825;45.434;9.116;2023-11-21T08:42:13;99593.97;;;11.39;100.00
59971;BME280;45825;45.434;9.116;2023-11-21T08:44:39;99588.38;;;11.44;100.00
59971;BME280;45825;45.434;9.116;2023-11-21T08:47:05;99586.59;;;11.44;100.00
59971;BME280;45825;45.434;9.116;2023-11-21T08:49:30;99590.91;;;11.45;100.00
59971;BME280;45825;45.434;9.116;2023-11-21T08:51:55;99577.53;;;11.49;100.00
59971;BME280;45825;45.434;9.116;2023-11-21T08:54:22;99569.06;;;11.56;100.00
59971;BME280;45825;45.434;9.116;2023-11-21T08:56:48;99567.59;;;11.65;100.00
59971;BME280;45825;45.434;9.116;2023-11-21T08:59:13;99569.38;;;11.65;100.00
59971;BME280;45825;45.434;9.116;2023-11-21T09:01:39;99564.50;;;11.71;100.00
59971;BME280;45825;45.434;9.116;2023-11-21T09:04:05;99560.69;;;11.76;100.00
59971;BME280;45825;45.434;9.116;2023-11-21T09:06:30;99564.06;;;11.78;100.00
59971;BME280;45825;45.434;9.116;2023-11-21T09:08:55;99564.56;;;11.83;100.00
59971;BME280;45825;45.434;9.116;2023-11-21T09:11:21;99556.16;;;11.78;100.00
59971;BME280;45825;45.434;9.116;2023-11-21T09:13:46;99554.81;;;11.72;100.00
59971;BME280;45825;45.434;9.116;2023-11-21T09:16:13;99557.25;;;11.62;100.00
59971;BME280;45825;45.434;9.116;2023-11-21T09:18:38;99560.66;;;11.51;100.00
59971;BME280;45825;45.434;9.116;2023-11-21T09:21:04;99557.16;;;11.51;100.00
59971;BME280;45825;45.434;9.116;2023-11-21T09:23:30;99560.75;;;11.63;100.00
59971;BME280;45825;45.434;9.116;2023-11-21T09:25:55;99562.56;;;11.36;100.00
59971;BME280;45825;45.434;9.116;2023-11-21T09:28:22;99573.44;;;11.44;100.00
59971;BME280;45825;45.434;9.116;2023-11-21T09:30:47;99562.22;;;11.54;100.00
59971;BME280;45825;45.434;9.116;2023-11-21T09:33:15;99559.16;;;11.60;100.00
59971;BME280;45825;45.434;9.116;2023-11-21T09:35:41;99557.78;;;11.67;100.00
59971;BME280;45825;45.434;9.116;2023-11-21T09:38:09;99551.09;;;11.74;100.00
59971;BME280;45825;45.434;9.116;2023-11-21T09:40:36;99544.59;;;11.92;100.00
59971;BME280;45825;45.434;9.116;2023-11-21T09:43:06;99538.50;;;12.04;100.00
59971;BME280;45825;45.434;9.116;2023-11-21T09:45:35;99535.44;;;12.22;100.00
59971;BME280;45825;45.434;9.116;2023-11-21T09:48:01;99542.72;;;12.18;100.00
59971;BME280;45825;45.434;9.116;2023-11-21T09:50:27;99535.97;;;12.02;100.00
59971;BME280;45825;45.434;9.116;2023-11-21T09:53:21;99530.31;;;12.20;100.00
59971;BME280;45825;45.434;9.116;2023-11-21T09:55:51;99528.59;;;12.19;100.00
59971;BME280;45825;45.434;9.116;2023-11-21T09:58:17;99540.03;;;12.07;100.00
59971;BME280;45825;45.434;9.116;2023-11-21T10:00:45;99531.38;;;11.80;100.00
59971;BME280;45825;45.434;9.116;2023-11-21T10:03:11;99534.94;;;11.79;100.00
59971;BME280;45825;45.434;9.116;2023-11-21T10:05:37;99526.31;;;11.77;100.00
59971;BME280;45825;45.434;9.116;2023-11-21T10:08:10;99518.97;;;11.69;100.00
59971;BME280;45825;45.434;9.116;2023-11-21T10:10:44;99532.16;;;11.69;100.00
59971;BME280;45825;45.434;9.116;2023-11-21T10:13:12;99526.69;;;11.97;100.00
59971;BME280;45825;45.434;9.116;2023-11-21T10:15:38;99527.72;;;12.07;100.00
59971;BME280;45825;45.434;9.116;2023-11-21T10:18:04;99517.97;;;12.32;100.00
59971;BME280;45825;45.434;9.116;2023-11-21T10:20:32;99512.09;;;12.28;100.00
59971;BME280;45825;45.434;9.116;2023-11-21T10:22:59;99507.09;;;12.37;100.00
59971;BME280;45825;45.434;9.116;2023-11-21T10:25:26;99499.88;;;12.86;100.00
59971;BME280;45825;45.434;9.116;2023-11-21T10:27:57;99504.53;;;12.94;100.00
59971;BME280;45825;45.434;9.116;2023-11-21T10:30:27;99501.09;;;13.16;100.00
59971;BME280;45825;45.434;9.116;2023-11-21T10:32:59;99493.50;;;13.23;100.00
59971;BME280;45825;45.434;9.116;2023-11-21T10:35:38;99500.13;;;12.94;100.00
59971;BME280;45825;45.434;9.116;2023-11-21T10:38:04;99486.56;;;12.99;100.00
59971;BME280;45825;45.434;9.116;2023-11-21T10:40:29;99490.28;;;12.96;100.00
59971;BME280;45825;45.434;9.116;2023-11-21T10:42:54;99483.13;;;14.09;100.00
59971;BME280;45825;45.434;9.116;2023-11-21T10:45:33;99481.88;;;15.30;100.00
59971;BME280;45825;45.434;9.116;2023-11-21T10:47:59;99482.00;;;16.09;100.00
59971;BME280;45825;45.434;9.116;2023-11-21T10:50:24;99487.56;;;17.02;100.00
59971;BME280;45825;45.434;9.116;2023-11-21T10:52:51;99490.06;;;15.77;100.00
59971;BME280;45825;45.434;9.116;2023-11-21T10:55:20;99500.44;;;14.99;100.00
59971;BME280;45825;45.434;9.116;2023-11-21T10:57:49;99504.84;;;14.46;100.00
59971;BME280;45825;45.434;9.116;2023-11-21T11:00:16;99494.47;;;14.00;100.00
59971;BME280;45825;45.434;9.116;2023-11-21T11:02:42;99486.25;;;13.82;100.00
59971;BME280;45825;45.434;9.116;2023-11-21T11:05:08;99485.38;;;13.81;100.00
59971;BME280;45825;45.434;9.116;2023-11-21T11:07:38;99473.91;;;13.60;100.00
59971;BME280;45825;45.434;9.116;2023-11-21T11:10:07;99473.53;;;13.64;100.00
59971;BME280;45825;45.434;9.116;2023-11-21T11:12:35;99467.31;;;13.98;100.00
59971;BME280;45825;45.434;9.116;2023-11-21T11:15:01;99472.44;;;15.47;100.00
59971;BME280;45825;45.434;9.116;2023-11-21T11:17:28;99463.69;;;15.15;100.00
59971;BME280;45825;45.434;9.116;2023-11-21T11:19:53;99457.47;;;14.43;100.00
59971;BME280;45825;45.434;9.116;2023-11-21T11:22:42;99456.16;;;14.79;100.00
59971;BME280;45825;45.434;9.116;2023-11-21T11:25:25;99459.38;;;16.34;100.00
59971;BME280;45825;45.434;9.116;2023-11-21T11:28:03;99465.38;;;15.87;100.00
59971;BME280;45825;45.434;9.116;2023-11-21T11:35:53;99462.75;;;14.85;100.00
59971;BME280;45825;45.434;9.116;2023-11-21T11:38:21;99452.50;;;14.49;100.00
59971;BME280;45825;45.434;9.116;2023-11-21T11:40:52;99450.66;;;14.50;100.00
59971;BME280;45825;45.434;9.116;2023-11-21T11:43:25;99458.50;;;15.84;100.00
59971;BME280;45825;45.434;9.116;2023-11-21T11:45:51;99449.06;;;16.69;97.73
59971;BME280;45825;45.434;9.116;2023-11-21T11:48:18;99441.09;;;15.11;100.00
59971;BME280;45825;45.434;9.116;2023-11-21T11:51:02;99443.94;;;14.67;100.00
59971;BME280;45825;45.434;9.116;2023-11-21T11:53:33;99454.63;;;14.77;100.00
59971;BME280;45825;45.434;9.116;2023-11-21T11:56:28;99446.53;;;15.90;100.00
59971;BME280;45825;45.434;9.116;2023-11-21T11:58:57;99454.50;;;16.10;96.63
59971;BME280;45825;45.434;9.116;2023-11-21T12:01:26;99439.59;;;15.28;100.00
59971;BME280;45825;45.434;9.116;2023-11-21T12:06:36;99437.38;;;17.27;94.42
59971;BME280;45825;45.434;9.116;2023-11-21T12:09:02;99419.66;;;18.19;84.34
59971;BME280;45825;45.434;9.116;2023-11-21T12:11:31;99415.97;;;19.67;66.66
59971;BME280;45825;45.434;9.116;2023-11-21T12:13:57;99416.44;;;20.45;63.35
59971;BME280;45825;45.434;9.116;2023-11-21T12:16:25;99409.41;;;20.61;59.69
59971;BME280;45825;45.434;9.116;2023-11-21T12:18:52;99412.28;;;20.99;58.86
59971;BME280;45825;45.434;9.116;2023-11-21T12:21:19;99414.53;;;21.50;56.74
59971;BME280;45825;45.434;9.116;2023-11-21T12:23:45;99408.50;;;21.48;57.88
59971;BME280;45825;45.434;9.116;2023-11-21T12:26:13;99396.78;;;22.19;52.58
59971;BME280;45825;45.434;9.116;2023-11-21T12:28:39;99399.81;;;22.55;52.17
59971;BME280;45825;45.434;9.116;2023-11-21T12:31:05;99395.03;;;23.02;47.31
59971;BME280;45825;45.434;9.116;2023-11-21T12:33:32;99403.69;;;22.82;47.14
59971;BME280;45825;45.434;9.116;2023-11-21T12:35:58;99407.88;;;22.31;50.53
59971;BME280;45825;45.434;9.116;2023-11-21T12:38:23;99403.41;;;22.62;47.87
59971;BME280;45825;45.434;9.116;2023-11-21T12:40:50;99399.53;;;22.50;47.76
59971;BME280;45825;45.434;9.116;2023-11-21T12:43:19;99393.88;;;22.74;49.26
59971;BME280;45825;45.434;9.116;2023-11-21T12:45:45;99394.53;;;22.77;47.75
59971;BME280;45825;45.434;9.116;2023-11-21T12:48:10;99400.78;;;23.51;45.94
59971;BME280;45825;45.434;9.116;2023-11-21T12:50:37;99391.50;;;23.75;46.19
59971;BME280;45825;45.434;9.116;2023-11-21T12:53:10;99393.56;;;24.52;41.99
59971;BME280;45825;45.434;9.116;2023-11-21T12:55:43;99393.22;;;24.33;41.91